<?xml version="1.0" encoding="UTF-8" standalone="no" ?>
<gpx xmlns="http://www.topografix.com/GPX/1/1" xmlns:xsi="http://www.w3.org/2001/XMLSchema-instance" xsi:schemaLocation="http://www.topografix.com/GPX/1/1 http://www.topografix.com/GPX/1/1/gpx.xsd" version="1.1" creator="VisuGPX - https://www.visugpx.com">
  <metadata>
    <name>2017-09-21 BREITENBACH</name>
    <desc><![CDATA[2017-09-21 BREITENBACH organisé par Lionel]]></desc>
  </metadata>
  <trk>
    <name><![CDATA[OR-8036577--Breitenbach:2017-09-21 BREITENBACH]]></name>
    <trkseg>
      <trkpt lat="48.3693" lon="7.28881">
        <ele>459</ele>
        <time>2017-10-23T12:47:12Z</time>
      </trkpt>
      <trkpt lat="48.36917" lon="7.28836">
        <ele>458</ele>
        <time>2017-10-23T12:49:12Z</time>
      </trkpt>
      <trkpt lat="48.369" lon="7.28808">
        <ele>456</ele>
        <time>2017-10-23T12:51:12Z</time>
      </trkpt>
      <trkpt lat="48.36878" lon="7.28774">
        <ele>453</ele>
        <time>2017-10-23T12:53:12Z</time>
      </trkpt>
      <trkpt lat="48.36842" lon="7.28725">
        <ele>444</ele>
        <time>2017-10-23T12:55:12Z</time>
      </trkpt>
      <trkpt lat="48.36855" lon="7.28694">
        <ele>444</ele>
        <time>2017-10-23T12:57:12Z</time>
      </trkpt>
      <trkpt lat="48.36861" lon="7.28667">
        <ele>444</ele>
        <time>2017-10-23T12:59:12Z</time>
      </trkpt>
      <trkpt lat="48.36884" lon="7.28617">
        <ele>447</ele>
        <time>2017-10-23T13:01:12Z</time>
      </trkpt>
      <trkpt lat="48.36897" lon="7.28573">
        <ele>450</ele>
        <time>2017-10-23T13:03:12Z</time>
      </trkpt>
      <trkpt lat="48.36899" lon="7.28417">
        <ele>453</ele>
        <time>2017-10-23T13:05:12Z</time>
      </trkpt>
      <trkpt lat="48.36925" lon="7.28349">
        <ele>462</ele>
        <time>2017-10-23T13:07:12Z</time>
      </trkpt>
      <trkpt lat="48.36921" lon="7.2834">
        <ele>461</ele>
        <time>2017-10-23T13:09:12Z</time>
      </trkpt>
      <trkpt lat="48.36913" lon="7.28331">
        <ele>460</ele>
        <time>2017-10-23T13:11:12Z</time>
      </trkpt>
      <trkpt lat="48.36899" lon="7.28321">
        <ele>458</ele>
        <time>2017-10-23T13:13:12Z</time>
      </trkpt>
      <trkpt lat="48.36889" lon="7.28311">
        <ele>457</ele>
        <time>2017-10-23T13:15:12Z</time>
      </trkpt>
      <trkpt lat="48.36885" lon="7.28294">
        <ele>459</ele>
        <time>2017-10-23T13:17:12Z</time>
      </trkpt>
      <trkpt lat="48.36879" lon="7.28265">
        <ele>460</ele>
        <time>2017-10-23T13:19:12Z</time>
      </trkpt>
      <trkpt lat="48.36859" lon="7.2818">
        <ele>460</ele>
        <time>2017-10-23T13:21:12Z</time>
      </trkpt>
      <trkpt lat="48.36838" lon="7.2793">
        <ele>465</ele>
        <time>2017-10-23T13:23:12Z</time>
      </trkpt>
      <trkpt lat="48.36842" lon="7.27802">
        <ele>462</ele>
        <time>2017-10-23T13:25:12Z</time>
      </trkpt>
      <trkpt lat="48.36849" lon="7.27769">
        <ele>463</ele>
        <time>2017-10-23T13:27:12Z</time>
      </trkpt>
      <trkpt lat="48.36863" lon="7.2773">
        <ele>465</ele>
        <time>2017-10-23T13:29:12Z</time>
      </trkpt>
      <trkpt lat="48.36872" lon="7.27683">
        <ele>463</ele>
        <time>2017-10-23T13:31:12Z</time>
      </trkpt>
      <trkpt lat="48.36885" lon="7.27636">
        <ele>464</ele>
        <time>2017-10-23T13:33:12Z</time>
      </trkpt>
      <trkpt lat="48.36902" lon="7.27545">
        <ele>463</ele>
        <time>2017-10-23T13:35:12Z</time>
      </trkpt>
      <trkpt lat="48.36903" lon="7.27527">
        <ele>462</ele>
        <time>2017-10-23T13:37:12Z</time>
      </trkpt>
      <trkpt lat="48.36895" lon="7.27499">
        <ele>458</ele>
        <time>2017-10-23T13:39:12Z</time>
      </trkpt>
      <trkpt lat="48.36886" lon="7.27473">
        <ele>457</ele>
        <time>2017-10-23T13:41:12Z</time>
      </trkpt>
      <trkpt lat="48.36879" lon="7.27466">
        <ele>456</ele>
        <time>2017-10-23T13:43:12Z</time>
      </trkpt>
      <trkpt lat="48.36863" lon="7.27449">
        <ele>457</ele>
        <time>2017-10-23T13:45:12Z</time>
      </trkpt>
      <trkpt lat="48.36889" lon="7.27435">
        <ele>458</ele>
        <time>2017-10-23T13:47:12Z</time>
      </trkpt>
      <trkpt lat="48.369" lon="7.27428">
        <ele>458</ele>
        <time>2017-10-23T13:49:12Z</time>
      </trkpt>
      <trkpt lat="48.36908" lon="7.27417">
        <ele>458</ele>
        <time>2017-10-23T13:51:12Z</time>
      </trkpt>
      <trkpt lat="48.36915" lon="7.27405">
        <ele>459</ele>
        <time>2017-10-23T13:53:12Z</time>
      </trkpt>
      <trkpt lat="48.36932" lon="7.27382">
        <ele>464</ele>
        <time>2017-10-23T13:55:12Z</time>
      </trkpt>
      <trkpt lat="48.36952" lon="7.27359">
        <ele>469</ele>
        <time>2017-10-23T13:57:12Z</time>
      </trkpt>
      <trkpt lat="48.36969" lon="7.27338">
        <ele>470</ele>
        <time>2017-10-23T13:59:12Z</time>
      </trkpt>
      <trkpt lat="48.37" lon="7.27309">
        <ele>475</ele>
        <time>2017-10-23T14:01:12Z</time>
      </trkpt>
      <trkpt lat="48.37022" lon="7.2728">
        <ele>482</ele>
        <time>2017-10-23T14:03:12Z</time>
      </trkpt>
      <trkpt lat="48.37042" lon="7.27256">
        <ele>485</ele>
        <time>2017-10-23T14:05:12Z</time>
      </trkpt>
      <trkpt lat="48.37063" lon="7.27234">
        <ele>489</ele>
        <time>2017-10-23T14:07:12Z</time>
      </trkpt>
      <trkpt lat="48.37082" lon="7.27218">
        <ele>491</ele>
        <time>2017-10-23T14:09:12Z</time>
      </trkpt>
      <trkpt lat="48.37109" lon="7.27195">
        <ele>495</ele>
        <time>2017-10-23T14:11:12Z</time>
      </trkpt>
      <trkpt lat="48.37133" lon="7.27164">
        <ele>498</ele>
        <time>2017-10-23T14:13:12Z</time>
      </trkpt>
      <trkpt lat="48.37161" lon="7.27135">
        <ele>507</ele>
        <time>2017-10-23T14:15:12Z</time>
      </trkpt>
      <trkpt lat="48.37189" lon="7.27103">
        <ele>516</ele>
        <time>2017-10-23T14:17:12Z</time>
      </trkpt>
      <trkpt lat="48.37199" lon="7.27094">
        <ele>517</ele>
        <time>2017-10-23T14:19:12Z</time>
      </trkpt>
      <trkpt lat="48.37221" lon="7.27092">
        <ele>516</ele>
        <time>2017-10-23T14:21:12Z</time>
      </trkpt>
      <trkpt lat="48.37239" lon="7.27095">
        <ele>515</ele>
        <time>2017-10-23T14:23:12Z</time>
      </trkpt>
      <trkpt lat="48.37251" lon="7.27107">
        <ele>514</ele>
        <time>2017-10-23T14:25:12Z</time>
      </trkpt>
      <trkpt lat="48.37264" lon="7.27121">
        <ele>516</ele>
        <time>2017-10-23T14:27:12Z</time>
      </trkpt>
      <trkpt lat="48.37313" lon="7.27113">
        <ele>528</ele>
        <time>2017-10-23T14:29:12Z</time>
      </trkpt>
      <trkpt lat="48.3734" lon="7.27116">
        <ele>534</ele>
        <time>2017-10-23T14:31:12Z</time>
      </trkpt>
      <trkpt lat="48.37358" lon="7.27118">
        <ele>539</ele>
        <time>2017-10-23T14:33:12Z</time>
      </trkpt>
      <trkpt lat="48.37427" lon="7.2712">
        <ele>556</ele>
        <time>2017-10-23T14:35:12Z</time>
      </trkpt>
      <trkpt lat="48.37452" lon="7.27115">
        <ele>561</ele>
        <time>2017-10-23T14:37:12Z</time>
      </trkpt>
      <trkpt lat="48.37466" lon="7.27112">
        <ele>564</ele>
        <time>2017-10-23T14:39:12Z</time>
      </trkpt>
      <trkpt lat="48.37461" lon="7.27124">
        <ele>563</ele>
        <time>2017-10-23T14:41:12Z</time>
      </trkpt>
      <trkpt lat="48.37445" lon="7.27147">
        <ele>560</ele>
        <time>2017-10-23T14:43:12Z</time>
      </trkpt>
      <trkpt lat="48.37437" lon="7.27166">
        <ele>559</ele>
        <time>2017-10-23T14:45:12Z</time>
      </trkpt>
      <trkpt lat="48.37434" lon="7.27185">
        <ele>561</ele>
        <time>2017-10-23T14:47:12Z</time>
      </trkpt>
      <trkpt lat="48.3742" lon="7.27239">
        <ele>564</ele>
        <time>2017-10-23T14:49:12Z</time>
      </trkpt>
      <trkpt lat="48.3741" lon="7.27302">
        <ele>564</ele>
        <time>2017-10-23T14:51:12Z</time>
      </trkpt>
      <trkpt lat="48.37411" lon="7.27326">
        <ele>565</ele>
        <time>2017-10-23T14:53:12Z</time>
      </trkpt>
      <trkpt lat="48.37415" lon="7.27339">
        <ele>567</ele>
        <time>2017-10-23T14:55:12Z</time>
      </trkpt>
      <trkpt lat="48.37421" lon="7.27365">
        <ele>572</ele>
        <time>2017-10-23T14:57:12Z</time>
      </trkpt>
      <trkpt lat="48.37425" lon="7.2738">
        <ele>575</ele>
        <time>2017-10-23T14:59:12Z</time>
      </trkpt>
      <trkpt lat="48.37423" lon="7.27386">
        <ele>574</ele>
        <time>2017-10-23T15:01:12Z</time>
      </trkpt>
      <trkpt lat="48.37374" lon="7.27425">
        <ele>572</ele>
        <time>2017-10-23T15:03:12Z</time>
      </trkpt>
      <trkpt lat="48.37355" lon="7.27442">
        <ele>574</ele>
        <time>2017-10-23T15:05:12Z</time>
      </trkpt>
      <trkpt lat="48.37333" lon="7.2746">
        <ele>577</ele>
        <time>2017-10-23T15:07:12Z</time>
      </trkpt>
      <trkpt lat="48.37308" lon="7.27485">
        <ele>581</ele>
        <time>2017-10-23T15:09:12Z</time>
      </trkpt>
      <trkpt lat="48.373" lon="7.27495">
        <ele>583</ele>
        <time>2017-10-23T15:11:12Z</time>
      </trkpt>
      <trkpt lat="48.3728" lon="7.27513">
        <ele>586</ele>
        <time>2017-10-23T15:13:12Z</time>
      </trkpt>
      <trkpt lat="48.37255" lon="7.2753">
        <ele>588</ele>
        <time>2017-10-23T15:15:12Z</time>
      </trkpt>
      <trkpt lat="48.37223" lon="7.27561">
        <ele>591</ele>
        <time>2017-10-23T15:17:12Z</time>
      </trkpt>
      <trkpt lat="48.37195" lon="7.27596">
        <ele>594</ele>
        <time>2017-10-23T15:19:12Z</time>
      </trkpt>
      <trkpt lat="48.37168" lon="7.27644">
        <ele>597</ele>
        <time>2017-10-23T15:21:12Z</time>
      </trkpt>
      <trkpt lat="48.37153" lon="7.2771">
        <ele>601</ele>
        <time>2017-10-23T15:23:12Z</time>
      </trkpt>
      <trkpt lat="48.37158" lon="7.27777">
        <ele>610</ele>
        <time>2017-10-23T15:25:12Z</time>
      </trkpt>
      <trkpt lat="48.37161" lon="7.27823">
        <ele>614</ele>
        <time>2017-10-23T15:27:12Z</time>
      </trkpt>
      <trkpt lat="48.37175" lon="7.27871">
        <ele>618</ele>
        <time>2017-10-23T15:29:12Z</time>
      </trkpt>
      <trkpt lat="48.37179" lon="7.2789">
        <ele>618</ele>
        <time>2017-10-23T15:31:12Z</time>
      </trkpt>
      <trkpt lat="48.37188" lon="7.27931">
        <ele>620</ele>
        <time>2017-10-23T15:33:12Z</time>
      </trkpt>
      <trkpt lat="48.37199" lon="7.27952">
        <ele>623</ele>
        <time>2017-10-23T15:35:12Z</time>
      </trkpt>
      <trkpt lat="48.37219" lon="7.27978">
        <ele>631</ele>
        <time>2017-10-23T15:37:12Z</time>
      </trkpt>
      <trkpt lat="48.37247" lon="7.28027">
        <ele>636</ele>
        <time>2017-10-23T15:39:12Z</time>
      </trkpt>
      <trkpt lat="48.37263" lon="7.28051">
        <ele>637</ele>
        <time>2017-10-23T15:41:12Z</time>
      </trkpt>
      <trkpt lat="48.37282" lon="7.2807">
        <ele>641</ele>
        <time>2017-10-23T15:43:12Z</time>
      </trkpt>
      <trkpt lat="48.37272" lon="7.28044">
        <ele>642</ele>
        <time>2017-10-23T15:45:12Z</time>
      </trkpt>
      <trkpt lat="48.37263" lon="7.28024">
        <ele>643</ele>
        <time>2017-10-23T15:47:12Z</time>
      </trkpt>
      <trkpt lat="48.37256" lon="7.28001">
        <ele>646</ele>
        <time>2017-10-23T15:49:12Z</time>
      </trkpt>
      <trkpt lat="48.37251" lon="7.2798">
        <ele>646</ele>
        <time>2017-10-23T15:51:12Z</time>
      </trkpt>
      <trkpt lat="48.37248" lon="7.27953">
        <ele>646</ele>
        <time>2017-10-23T15:53:12Z</time>
      </trkpt>
      <trkpt lat="48.37246" lon="7.27928">
        <ele>646</ele>
        <time>2017-10-23T15:55:12Z</time>
      </trkpt>
      <trkpt lat="48.37247" lon="7.27904">
        <ele>648</ele>
        <time>2017-10-23T15:57:12Z</time>
      </trkpt>
      <trkpt lat="48.37248" lon="7.2788">
        <ele>650</ele>
        <time>2017-10-23T15:59:12Z</time>
      </trkpt>
      <trkpt lat="48.37249" lon="7.27854">
        <ele>652</ele>
        <time>2017-10-23T16:01:12Z</time>
      </trkpt>
      <trkpt lat="48.37251" lon="7.27833">
        <ele>654</ele>
        <time>2017-10-23T16:03:12Z</time>
      </trkpt>
      <trkpt lat="48.37254" lon="7.27811">
        <ele>654</ele>
        <time>2017-10-23T16:05:12Z</time>
      </trkpt>
      <trkpt lat="48.37258" lon="7.27801">
        <ele>654</ele>
        <time>2017-10-23T16:07:12Z</time>
      </trkpt>
      <trkpt lat="48.37264" lon="7.27791">
        <ele>655</ele>
        <time>2017-10-23T16:09:12Z</time>
      </trkpt>
      <trkpt lat="48.37269" lon="7.27782">
        <ele>656</ele>
        <time>2017-10-23T16:11:12Z</time>
      </trkpt>
      <trkpt lat="48.37279" lon="7.27772">
        <ele>658</ele>
        <time>2017-10-23T16:13:12Z</time>
      </trkpt>
      <trkpt lat="48.37304" lon="7.27753">
        <ele>662</ele>
        <time>2017-10-23T16:15:12Z</time>
      </trkpt>
      <trkpt lat="48.3732" lon="7.27746">
        <ele>665</ele>
        <time>2017-10-23T16:17:12Z</time>
      </trkpt>
      <trkpt lat="48.37336" lon="7.2774">
        <ele>667</ele>
        <time>2017-10-23T16:19:12Z</time>
      </trkpt>
      <trkpt lat="48.37354" lon="7.27738">
        <ele>667</ele>
        <time>2017-10-23T16:21:12Z</time>
      </trkpt>
      <trkpt lat="48.37369" lon="7.27737">
        <ele>668</ele>
        <time>2017-10-23T16:23:12Z</time>
      </trkpt>
      <trkpt lat="48.37385" lon="7.27736">
        <ele>668</ele>
        <time>2017-10-23T16:25:12Z</time>
      </trkpt>
      <trkpt lat="48.37404" lon="7.2774">
        <ele>671</ele>
        <time>2017-10-23T16:27:12Z</time>
      </trkpt>
      <trkpt lat="48.37422" lon="7.27743">
        <ele>673</ele>
        <time>2017-10-23T16:29:12Z</time>
      </trkpt>
      <trkpt lat="48.3744" lon="7.27746">
        <ele>675</ele>
        <time>2017-10-23T16:31:12Z</time>
      </trkpt>
      <trkpt lat="48.37476" lon="7.27755">
        <ele>679</ele>
        <time>2017-10-23T16:33:12Z</time>
      </trkpt>
      <trkpt lat="48.37501" lon="7.27753">
        <ele>680</ele>
        <time>2017-10-23T16:35:12Z</time>
      </trkpt>
      <trkpt lat="48.37531" lon="7.27745">
        <ele>684</ele>
        <time>2017-10-23T16:37:12Z</time>
      </trkpt>
      <trkpt lat="48.3762" lon="7.27717">
        <ele>699</ele>
        <time>2017-10-23T16:39:12Z</time>
      </trkpt>
      <trkpt lat="48.37658" lon="7.27684">
        <ele>704</ele>
        <time>2017-10-23T16:41:12Z</time>
      </trkpt>
      <trkpt lat="48.37682" lon="7.27633">
        <ele>704</ele>
        <time>2017-10-23T16:43:12Z</time>
      </trkpt>
      <trkpt lat="48.37691" lon="7.27617">
        <ele>705</ele>
        <time>2017-10-23T16:45:12Z</time>
      </trkpt>
      <trkpt lat="48.37704" lon="7.27598">
        <ele>709</ele>
        <time>2017-10-23T16:47:12Z</time>
      </trkpt>
      <trkpt lat="48.37716" lon="7.27578">
        <ele>712</ele>
        <time>2017-10-23T16:49:12Z</time>
      </trkpt>
      <trkpt lat="48.37727" lon="7.27561">
        <ele>717</ele>
        <time>2017-10-23T16:51:12Z</time>
      </trkpt>
      <trkpt lat="48.37737" lon="7.2754">
        <ele>720</ele>
        <time>2017-10-23T16:53:12Z</time>
      </trkpt>
      <trkpt lat="48.37737" lon="7.27516">
        <ele>716</ele>
        <time>2017-10-23T16:55:12Z</time>
      </trkpt>
      <trkpt lat="48.37735" lon="7.275">
        <ele>713</ele>
        <time>2017-10-23T16:57:12Z</time>
      </trkpt>
      <trkpt lat="48.37732" lon="7.27474">
        <ele>710</ele>
        <time>2017-10-23T16:59:12Z</time>
      </trkpt>
      <trkpt lat="48.37733" lon="7.27451">
        <ele>709</ele>
        <time>2017-10-23T17:01:12Z</time>
      </trkpt>
      <trkpt lat="48.37737" lon="7.27436">
        <ele>710</ele>
        <time>2017-10-23T17:03:12Z</time>
      </trkpt>
      <trkpt lat="48.3774" lon="7.27425">
        <ele>711</ele>
        <time>2017-10-23T17:05:12Z</time>
      </trkpt>
      <trkpt lat="48.3775" lon="7.27436">
        <ele>716</ele>
        <time>2017-10-23T17:07:12Z</time>
      </trkpt>
      <trkpt lat="48.37743" lon="7.27418">
        <ele>711</ele>
        <time>2017-10-23T17:09:12Z</time>
      </trkpt>
      <trkpt lat="48.3777" lon="7.27384">
        <ele>711</ele>
        <time>2017-10-23T17:11:12Z</time>
      </trkpt>
      <trkpt lat="48.3779" lon="7.27368">
        <ele>712</ele>
        <time>2017-10-23T17:13:12Z</time>
      </trkpt>
      <trkpt lat="48.37802" lon="7.27367">
        <ele>715</ele>
        <time>2017-10-23T17:15:12Z</time>
      </trkpt>
      <trkpt lat="48.37816" lon="7.27372">
        <ele>718</ele>
        <time>2017-10-23T17:17:12Z</time>
      </trkpt>
      <trkpt lat="48.37827" lon="7.27391">
        <ele>724</ele>
        <time>2017-10-23T17:19:12Z</time>
      </trkpt>
      <trkpt lat="48.37826" lon="7.27401">
        <ele>725</ele>
        <time>2017-10-23T17:21:12Z</time>
      </trkpt>
      <trkpt lat="48.3783" lon="7.27418">
        <ele>729</ele>
        <time>2017-10-23T17:23:12Z</time>
      </trkpt>
      <trkpt lat="48.37838" lon="7.27434">
        <ele>733</ele>
        <time>2017-10-23T17:25:12Z</time>
      </trkpt>
      <trkpt lat="48.37847" lon="7.2745">
        <ele>736</ele>
        <time>2017-10-23T17:27:12Z</time>
      </trkpt>
      <trkpt lat="48.3786" lon="7.27464">
        <ele>739</ele>
        <time>2017-10-23T17:29:12Z</time>
      </trkpt>
      <trkpt lat="48.37876" lon="7.27478">
        <ele>742</ele>
        <time>2017-10-23T17:31:12Z</time>
      </trkpt>
      <trkpt lat="48.37892" lon="7.27492">
        <ele>745</ele>
        <time>2017-10-23T17:33:12Z</time>
      </trkpt>
      <trkpt lat="48.37902" lon="7.27499">
        <ele>747</ele>
        <time>2017-10-23T17:35:12Z</time>
      </trkpt>
      <trkpt lat="48.37911" lon="7.27518">
        <ele>753</ele>
        <time>2017-10-23T17:37:12Z</time>
      </trkpt>
      <trkpt lat="48.37857" lon="7.27516">
        <ele>754</ele>
        <time>2017-10-23T17:39:12Z</time>
      </trkpt>
      <trkpt lat="48.37843" lon="7.27515">
        <ele>754</ele>
        <time>2017-10-23T17:41:12Z</time>
      </trkpt>
      <trkpt lat="48.37829" lon="7.27524">
        <ele>755</ele>
        <time>2017-10-23T17:43:12Z</time>
      </trkpt>
      <trkpt lat="48.3782" lon="7.27539">
        <ele>755</ele>
        <time>2017-10-23T17:45:12Z</time>
      </trkpt>
      <trkpt lat="48.37812" lon="7.27558">
        <ele>755</ele>
        <time>2017-10-23T17:47:12Z</time>
      </trkpt>
      <trkpt lat="48.37805" lon="7.27573">
        <ele>756</ele>
        <time>2017-10-23T17:49:12Z</time>
      </trkpt>
      <trkpt lat="48.37799" lon="7.27608">
        <ele>760</ele>
        <time>2017-10-23T17:51:12Z</time>
      </trkpt>
      <trkpt lat="48.37791" lon="7.27634">
        <ele>761</ele>
        <time>2017-10-23T17:53:12Z</time>
      </trkpt>
      <trkpt lat="48.37783" lon="7.27659">
        <ele>762</ele>
        <time>2017-10-23T17:55:12Z</time>
      </trkpt>
      <trkpt lat="48.37775" lon="7.27682">
        <ele>763</ele>
        <time>2017-10-23T17:57:12Z</time>
      </trkpt>
      <trkpt lat="48.37766" lon="7.27705">
        <ele>762</ele>
        <time>2017-10-23T17:59:12Z</time>
      </trkpt>
      <trkpt lat="48.37759" lon="7.27731">
        <ele>762</ele>
        <time>2017-10-23T18:01:12Z</time>
      </trkpt>
      <trkpt lat="48.37755" lon="7.27753">
        <ele>763</ele>
        <time>2017-10-23T18:03:12Z</time>
      </trkpt>
      <trkpt lat="48.37751" lon="7.27773">
        <ele>765</ele>
        <time>2017-10-23T18:05:12Z</time>
      </trkpt>
      <trkpt lat="48.37745" lon="7.27797">
        <ele>767</ele>
        <time>2017-10-23T18:07:12Z</time>
      </trkpt>
      <trkpt lat="48.3774" lon="7.27815">
        <ele>768</ele>
        <time>2017-10-23T18:09:12Z</time>
      </trkpt>
      <trkpt lat="48.37727" lon="7.27846">
        <ele>770</ele>
        <time>2017-10-23T18:11:12Z</time>
      </trkpt>
      <trkpt lat="48.37709" lon="7.27859">
        <ele>766</ele>
        <time>2017-10-23T18:13:12Z</time>
      </trkpt>
      <trkpt lat="48.37693" lon="7.2787">
        <ele>763</ele>
        <time>2017-10-23T18:15:12Z</time>
      </trkpt>
      <trkpt lat="48.3768" lon="7.27883">
        <ele>762</ele>
        <time>2017-10-23T18:17:12Z</time>
      </trkpt>
      <trkpt lat="48.37666" lon="7.27902">
        <ele>762</ele>
        <time>2017-10-23T18:19:12Z</time>
      </trkpt>
      <trkpt lat="48.37657" lon="7.27916">
        <ele>763</ele>
        <time>2017-10-23T18:21:12Z</time>
      </trkpt>
      <trkpt lat="48.37651" lon="7.27936">
        <ele>764</ele>
        <time>2017-10-23T18:23:12Z</time>
      </trkpt>
      <trkpt lat="48.37655" lon="7.27955">
        <ele>767</ele>
        <time>2017-10-23T18:25:12Z</time>
      </trkpt>
      <trkpt lat="48.37654" lon="7.27961">
        <ele>768</ele>
        <time>2017-10-23T18:27:12Z</time>
      </trkpt>
      <trkpt lat="48.37649" lon="7.27971">
        <ele>767</ele>
        <time>2017-10-23T18:29:12Z</time>
      </trkpt>
      <trkpt lat="48.3765" lon="7.27987">
        <ele>769</ele>
        <time>2017-10-23T18:31:12Z</time>
      </trkpt>
      <trkpt lat="48.37676" lon="7.28044">
        <ele>775</ele>
        <time>2017-10-23T18:33:12Z</time>
      </trkpt>
      <trkpt lat="48.37683" lon="7.28057">
        <ele>775</ele>
        <time>2017-10-23T18:35:12Z</time>
      </trkpt>
      <trkpt lat="48.37696" lon="7.28068">
        <ele>777</ele>
        <time>2017-10-23T18:37:12Z</time>
      </trkpt>
      <trkpt lat="48.37702" lon="7.28073">
        <ele>778</ele>
        <time>2017-10-23T18:39:12Z</time>
      </trkpt>
      <trkpt lat="48.37744" lon="7.28062">
        <ele>790</ele>
        <time>2017-10-23T18:41:12Z</time>
      </trkpt>
      <trkpt lat="48.37765" lon="7.28059">
        <ele>794</ele>
        <time>2017-10-23T18:43:12Z</time>
      </trkpt>
      <trkpt lat="48.37776" lon="7.28064">
        <ele>795</ele>
        <time>2017-10-23T18:45:12Z</time>
      </trkpt>
      <trkpt lat="48.37829" lon="7.28063">
        <ele>804</ele>
        <time>2017-10-23T18:47:12Z</time>
      </trkpt>
      <trkpt lat="48.37847" lon="7.28068">
        <ele>806</ele>
        <time>2017-10-23T18:49:12Z</time>
      </trkpt>
      <trkpt lat="48.37866" lon="7.28074">
        <ele>808</ele>
        <time>2017-10-23T18:51:12Z</time>
      </trkpt>
      <trkpt lat="48.3788" lon="7.28075">
        <ele>810</ele>
        <time>2017-10-23T18:53:12Z</time>
      </trkpt>
      <trkpt lat="48.37915" lon="7.28086">
        <ele>813</ele>
        <time>2017-10-23T18:55:12Z</time>
      </trkpt>
      <trkpt lat="48.37925" lon="7.28093">
        <ele>814</ele>
        <time>2017-10-23T18:57:12Z</time>
      </trkpt>
      <trkpt lat="48.37946" lon="7.28104">
        <ele>817</ele>
        <time>2017-10-23T18:59:12Z</time>
      </trkpt>
      <trkpt lat="48.38003" lon="7.28136">
        <ele>825</ele>
        <time>2017-10-23T19:01:12Z</time>
      </trkpt>
      <trkpt lat="48.38026" lon="7.28145">
        <ele>829</ele>
        <time>2017-10-23T19:03:12Z</time>
      </trkpt>
      <trkpt lat="48.38042" lon="7.28161">
        <ele>829</ele>
        <time>2017-10-23T19:05:12Z</time>
      </trkpt>
      <trkpt lat="48.38052" lon="7.28174">
        <ele>830</ele>
        <time>2017-10-23T19:07:12Z</time>
      </trkpt>
      <trkpt lat="48.38062" lon="7.28193">
        <ele>830</ele>
        <time>2017-10-23T19:09:12Z</time>
      </trkpt>
      <trkpt lat="48.38075" lon="7.2821">
        <ele>832</ele>
        <time>2017-10-23T19:11:12Z</time>
      </trkpt>
      <trkpt lat="48.38085" lon="7.28229">
        <ele>834</ele>
        <time>2017-10-23T19:13:12Z</time>
      </trkpt>
      <trkpt lat="48.38105" lon="7.28264">
        <ele>838</ele>
        <time>2017-10-23T19:15:12Z</time>
      </trkpt>
      <trkpt lat="48.38116" lon="7.28294">
        <ele>838</ele>
        <time>2017-10-23T19:17:12Z</time>
      </trkpt>
      <trkpt lat="48.38129" lon="7.28313">
        <ele>841</ele>
        <time>2017-10-23T19:19:12Z</time>
      </trkpt>
      <trkpt lat="48.38157" lon="7.28358">
        <ele>847</ele>
        <time>2017-10-23T19:21:12Z</time>
      </trkpt>
      <trkpt lat="48.38181" lon="7.28395">
        <ele>852</ele>
        <time>2017-10-23T19:23:12Z</time>
      </trkpt>
      <trkpt lat="48.38209" lon="7.28445">
        <ele>859</ele>
        <time>2017-10-23T19:25:12Z</time>
      </trkpt>
      <trkpt lat="48.38221" lon="7.28463">
        <ele>862</ele>
        <time>2017-10-23T19:27:12Z</time>
      </trkpt>
      <trkpt lat="48.38255" lon="7.28516">
        <ele>868</ele>
        <time>2017-10-23T19:29:12Z</time>
      </trkpt>
      <trkpt lat="48.38272" lon="7.28537">
        <ele>869</ele>
        <time>2017-10-23T19:31:12Z</time>
      </trkpt>
      <trkpt lat="48.38281" lon="7.28546">
        <ele>869</ele>
        <time>2017-10-23T19:33:12Z</time>
      </trkpt>
      <trkpt lat="48.3831" lon="7.28567">
        <ele>871</ele>
        <time>2017-10-23T19:35:12Z</time>
      </trkpt>
      <trkpt lat="48.38328" lon="7.28577">
        <ele>872</ele>
        <time>2017-10-23T19:37:12Z</time>
      </trkpt>
      <trkpt lat="48.38351" lon="7.28593">
        <ele>873</ele>
        <time>2017-10-23T19:39:12Z</time>
      </trkpt>
      <trkpt lat="48.38366" lon="7.286">
        <ele>875</ele>
        <time>2017-10-23T19:41:12Z</time>
      </trkpt>
      <trkpt lat="48.38375" lon="7.28604">
        <ele>877</ele>
        <time>2017-10-23T19:43:12Z</time>
      </trkpt>
      <trkpt lat="48.38393" lon="7.28611">
        <ele>880</ele>
        <time>2017-10-23T19:45:12Z</time>
      </trkpt>
      <trkpt lat="48.38411" lon="7.28626">
        <ele>879</ele>
        <time>2017-10-23T19:47:12Z</time>
      </trkpt>
      <trkpt lat="48.38429" lon="7.28643">
        <ele>877</ele>
        <time>2017-10-23T19:49:12Z</time>
      </trkpt>
      <trkpt lat="48.38438" lon="7.28656">
        <ele>873</ele>
        <time>2017-10-23T19:51:12Z</time>
      </trkpt>
      <trkpt lat="48.38449" lon="7.28667">
        <ele>871</ele>
        <time>2017-10-23T19:53:12Z</time>
      </trkpt>
      <trkpt lat="48.3847" lon="7.2868">
        <ele>870</ele>
        <time>2017-10-23T19:55:12Z</time>
      </trkpt>
      <trkpt lat="48.38483" lon="7.28686">
        <ele>871</ele>
        <time>2017-10-23T19:57:12Z</time>
      </trkpt>
      <trkpt lat="48.38504" lon="7.28697">
        <ele>871</ele>
        <time>2017-10-23T19:59:12Z</time>
      </trkpt>
      <trkpt lat="48.38531" lon="7.28711">
        <ele>871</ele>
        <time>2017-10-23T20:01:12Z</time>
      </trkpt>
      <trkpt lat="48.38525" lon="7.28701">
        <ele>873</ele>
        <time>2017-10-23T20:03:12Z</time>
      </trkpt>
      <trkpt lat="48.38516" lon="7.28687">
        <ele>876</ele>
        <time>2017-10-23T20:05:12Z</time>
      </trkpt>
      <trkpt lat="48.38501" lon="7.2867">
        <ele>878</ele>
        <time>2017-10-23T20:07:12Z</time>
      </trkpt>
      <trkpt lat="48.38485" lon="7.28652">
        <ele>882</ele>
        <time>2017-10-23T20:09:12Z</time>
      </trkpt>
      <trkpt lat="48.38462" lon="7.28631">
        <ele>886</ele>
        <time>2017-10-23T20:11:12Z</time>
      </trkpt>
      <trkpt lat="48.38448" lon="7.2861">
        <ele>891</ele>
        <time>2017-10-23T20:13:12Z</time>
      </trkpt>
      <trkpt lat="48.38438" lon="7.28592">
        <ele>897</ele>
        <time>2017-10-23T20:15:12Z</time>
      </trkpt>
      <trkpt lat="48.38429" lon="7.28576">
        <ele>901</ele>
        <time>2017-10-23T20:17:12Z</time>
      </trkpt>
      <trkpt lat="48.38419" lon="7.28566">
        <ele>904</ele>
        <time>2017-10-23T20:19:12Z</time>
      </trkpt>
      <trkpt lat="48.38402" lon="7.28549">
        <ele>905</ele>
        <time>2017-10-23T20:21:12Z</time>
      </trkpt>
      <trkpt lat="48.38389" lon="7.28538">
        <ele>906</ele>
        <time>2017-10-23T20:23:12Z</time>
      </trkpt>
      <trkpt lat="48.3837" lon="7.2852">
        <ele>907</ele>
        <time>2017-10-23T20:25:12Z</time>
      </trkpt>
      <trkpt lat="48.38355" lon="7.28505">
        <ele>908</ele>
        <time>2017-10-23T20:27:12Z</time>
      </trkpt>
      <trkpt lat="48.38344" lon="7.28488">
        <ele>910</ele>
        <time>2017-10-23T20:29:12Z</time>
      </trkpt>
      <trkpt lat="48.38334" lon="7.28468">
        <ele>912</ele>
        <time>2017-10-23T20:31:12Z</time>
      </trkpt>
      <trkpt lat="48.38326" lon="7.28448">
        <ele>912</ele>
        <time>2017-10-23T20:33:12Z</time>
      </trkpt>
      <trkpt lat="48.38318" lon="7.28424">
        <ele>914</ele>
        <time>2017-10-23T20:35:12Z</time>
      </trkpt>
      <trkpt lat="48.38314" lon="7.28398">
        <ele>914</ele>
        <time>2017-10-23T20:37:12Z</time>
      </trkpt>
      <trkpt lat="48.38311" lon="7.28368">
        <ele>915</ele>
        <time>2017-10-23T20:39:12Z</time>
      </trkpt>
      <trkpt lat="48.3831" lon="7.28347">
        <ele>916</ele>
        <time>2017-10-23T20:41:12Z</time>
      </trkpt>
      <trkpt lat="48.38311" lon="7.28265">
        <ele>923</ele>
        <time>2017-10-23T20:43:12Z</time>
      </trkpt>
      <trkpt lat="48.38308" lon="7.28221">
        <ele>926</ele>
        <time>2017-10-23T20:45:12Z</time>
      </trkpt>
      <trkpt lat="48.38304" lon="7.28188">
        <ele>928</ele>
        <time>2017-10-23T20:47:12Z</time>
      </trkpt>
      <trkpt lat="48.38307" lon="7.2817">
        <ele>931</ele>
        <time>2017-10-23T20:49:12Z</time>
      </trkpt>
      <trkpt lat="48.38309" lon="7.28148">
        <ele>932</ele>
        <time>2017-10-23T20:51:12Z</time>
      </trkpt>
      <trkpt lat="48.38311" lon="7.28125">
        <ele>932</ele>
        <time>2017-10-23T20:53:12Z</time>
      </trkpt>
      <trkpt lat="48.38311" lon="7.28106">
        <ele>932</ele>
        <time>2017-10-23T20:55:12Z</time>
      </trkpt>
      <trkpt lat="48.38313" lon="7.2808">
        <ele>933</ele>
        <time>2017-10-23T20:57:12Z</time>
      </trkpt>
      <trkpt lat="48.38318" lon="7.28058">
        <ele>932</ele>
        <time>2017-10-23T20:59:12Z</time>
      </trkpt>
      <trkpt lat="48.38327" lon="7.28056">
        <ele>934</ele>
        <time>2017-10-23T21:01:12Z</time>
      </trkpt>
      <trkpt lat="48.38335" lon="7.28062">
        <ele>936</ele>
        <time>2017-10-23T21:03:12Z</time>
      </trkpt>
      <trkpt lat="48.38345" lon="7.28078">
        <ele>939</ele>
        <time>2017-10-23T21:05:12Z</time>
      </trkpt>
      <trkpt lat="48.38368" lon="7.2815">
        <ele>946</ele>
        <time>2017-10-23T21:07:12Z</time>
      </trkpt>
      <trkpt lat="48.38368" lon="7.28201">
        <ele>946</ele>
        <time>2017-10-23T21:09:12Z</time>
      </trkpt>
      <trkpt lat="48.3837" lon="7.28242">
        <ele>946</ele>
        <time>2017-10-23T21:11:12Z</time>
      </trkpt>
      <trkpt lat="48.38387" lon="7.28251">
        <ele>951</ele>
        <time>2017-10-23T21:13:12Z</time>
      </trkpt>
      <trkpt lat="48.38392" lon="7.28275">
        <ele>952</ele>
        <time>2017-10-23T21:15:12Z</time>
      </trkpt>
      <trkpt lat="48.38423" lon="7.28294">
        <ele>962</ele>
        <time>2017-10-23T21:17:12Z</time>
      </trkpt>
      <trkpt lat="48.38438" lon="7.28324">
        <ele>963</ele>
        <time>2017-10-23T21:19:12Z</time>
      </trkpt>
      <trkpt lat="48.3848" lon="7.2837">
        <ele>963</ele>
        <time>2017-10-23T21:21:12Z</time>
      </trkpt>
      <trkpt lat="48.38523" lon="7.28412">
        <ele>958</ele>
        <time>2017-10-23T21:23:12Z</time>
      </trkpt>
      <trkpt lat="48.38588" lon="7.28378">
        <ele>948</ele>
        <time>2017-10-23T21:25:12Z</time>
      </trkpt>
      <trkpt lat="48.38641" lon="7.28352">
        <ele>936</ele>
        <time>2017-10-23T21:27:12Z</time>
      </trkpt>
      <trkpt lat="48.38675" lon="7.28339">
        <ele>927</ele>
        <time>2017-10-23T21:29:12Z</time>
      </trkpt>
      <trkpt lat="48.38708" lon="7.28317">
        <ele>917</ele>
        <time>2017-10-23T21:31:12Z</time>
      </trkpt>
      <trkpt lat="48.38753" lon="7.28296">
        <ele>904</ele>
        <time>2017-10-23T21:33:12Z</time>
      </trkpt>
      <trkpt lat="48.38768" lon="7.28283">
        <ele>901</ele>
        <time>2017-10-23T21:35:12Z</time>
      </trkpt>
      <trkpt lat="48.3877" lon="7.28325">
        <ele>902</ele>
        <time>2017-10-23T21:37:12Z</time>
      </trkpt>
      <trkpt lat="48.38774" lon="7.28384">
        <ele>901</ele>
        <time>2017-10-23T21:39:12Z</time>
      </trkpt>
      <trkpt lat="48.38786" lon="7.28477">
        <ele>898</ele>
        <time>2017-10-23T21:41:12Z</time>
      </trkpt>
      <trkpt lat="48.38791" lon="7.28548">
        <ele>895</ele>
        <time>2017-10-23T21:43:12Z</time>
      </trkpt>
      <trkpt lat="48.3879" lon="7.28574">
        <ele>895</ele>
        <time>2017-10-23T21:45:12Z</time>
      </trkpt>
      <trkpt lat="48.38788" lon="7.28607">
        <ele>894</ele>
        <time>2017-10-23T21:47:12Z</time>
      </trkpt>
      <trkpt lat="48.38786" lon="7.28642">
        <ele>893</ele>
        <time>2017-10-23T21:49:12Z</time>
      </trkpt>
      <trkpt lat="48.38782" lon="7.28667">
        <ele>892</ele>
        <time>2017-10-23T21:51:12Z</time>
      </trkpt>
      <trkpt lat="48.38777" lon="7.28692">
        <ele>891</ele>
        <time>2017-10-23T21:53:12Z</time>
      </trkpt>
      <trkpt lat="48.38771" lon="7.28708">
        <ele>891</ele>
        <time>2017-10-23T21:55:12Z</time>
      </trkpt>
      <trkpt lat="48.38766" lon="7.28719">
        <ele>890</ele>
        <time>2017-10-23T21:57:12Z</time>
      </trkpt>
      <trkpt lat="48.38747" lon="7.28742">
        <ele>890</ele>
        <time>2017-10-23T21:59:12Z</time>
      </trkpt>
      <trkpt lat="48.38734" lon="7.28758">
        <ele>888</ele>
        <time>2017-10-23T22:01:12Z</time>
      </trkpt>
      <trkpt lat="48.3872" lon="7.28778">
        <ele>886</ele>
        <time>2017-10-23T22:03:12Z</time>
      </trkpt>
      <trkpt lat="48.38706" lon="7.28802">
        <ele>884</ele>
        <time>2017-10-23T22:05:12Z</time>
      </trkpt>
      <trkpt lat="48.38698" lon="7.28806">
        <ele>883</ele>
        <time>2017-10-23T22:07:12Z</time>
      </trkpt>
      <trkpt lat="48.38675" lon="7.28812">
        <ele>880</ele>
        <time>2017-10-23T22:09:12Z</time>
      </trkpt>
      <trkpt lat="48.38666" lon="7.28813">
        <ele>879</ele>
        <time>2017-10-23T22:11:12Z</time>
      </trkpt>
      <trkpt lat="48.38658" lon="7.2881">
        <ele>878</ele>
        <time>2017-10-23T22:13:12Z</time>
      </trkpt>
      <trkpt lat="48.38643" lon="7.28802">
        <ele>875</ele>
        <time>2017-10-23T22:15:12Z</time>
      </trkpt>
      <trkpt lat="48.38623" lon="7.28787">
        <ele>873</ele>
        <time>2017-10-23T22:17:12Z</time>
      </trkpt>
      <trkpt lat="48.38613" lon="7.28776">
        <ele>873</ele>
        <time>2017-10-23T22:19:12Z</time>
      </trkpt>
      <trkpt lat="48.38603" lon="7.28759">
        <ele>873</ele>
        <time>2017-10-23T22:21:12Z</time>
      </trkpt>
      <trkpt lat="48.38598" lon="7.28751">
        <ele>873</ele>
        <time>2017-10-23T22:23:12Z</time>
      </trkpt>
      <trkpt lat="48.38593" lon="7.28748">
        <ele>873</ele>
        <time>2017-10-23T22:25:12Z</time>
      </trkpt>
      <trkpt lat="48.38553" lon="7.28761">
        <ele>863</ele>
        <time>2017-10-23T22:27:12Z</time>
      </trkpt>
      <trkpt lat="48.38558" lon="7.28778">
        <ele>861</ele>
        <time>2017-10-23T22:29:12Z</time>
      </trkpt>
      <trkpt lat="48.38569" lon="7.28805">
        <ele>859</ele>
        <time>2017-10-23T22:31:12Z</time>
      </trkpt>
      <trkpt lat="48.38575" lon="7.2883">
        <ele>857</ele>
        <time>2017-10-23T22:33:12Z</time>
      </trkpt>
      <trkpt lat="48.38579" lon="7.2885">
        <ele>854</ele>
        <time>2017-10-23T22:35:12Z</time>
      </trkpt>
      <trkpt lat="48.38581" lon="7.28869">
        <ele>852</ele>
        <time>2017-10-23T22:37:12Z</time>
      </trkpt>
      <trkpt lat="48.38585" lon="7.28898">
        <ele>848</ele>
        <time>2017-10-23T22:39:12Z</time>
      </trkpt>
      <trkpt lat="48.3859" lon="7.28912">
        <ele>848</ele>
        <time>2017-10-23T22:41:12Z</time>
      </trkpt>
      <trkpt lat="48.38601" lon="7.28938">
        <ele>845</ele>
        <time>2017-10-23T22:43:12Z</time>
      </trkpt>
      <trkpt lat="48.38612" lon="7.28969">
        <ele>841</ele>
        <time>2017-10-23T22:45:12Z</time>
      </trkpt>
      <trkpt lat="48.38621" lon="7.28996">
        <ele>837</ele>
        <time>2017-10-23T22:47:12Z</time>
      </trkpt>
      <trkpt lat="48.38641" lon="7.29025">
        <ele>833</ele>
        <time>2017-10-23T22:49:12Z</time>
      </trkpt>
      <trkpt lat="48.38656" lon="7.29046">
        <ele>829</ele>
        <time>2017-10-23T22:51:12Z</time>
      </trkpt>
      <trkpt lat="48.38684" lon="7.2907">
        <ele>825</ele>
        <time>2017-10-23T22:53:12Z</time>
      </trkpt>
      <trkpt lat="48.38699" lon="7.29079">
        <ele>824</ele>
        <time>2017-10-23T22:55:12Z</time>
      </trkpt>
      <trkpt lat="48.3872" lon="7.2909">
        <ele>824</ele>
        <time>2017-10-23T22:57:12Z</time>
      </trkpt>
      <trkpt lat="48.38732" lon="7.29107">
        <ele>820</ele>
        <time>2017-10-23T22:59:12Z</time>
      </trkpt>
      <trkpt lat="48.38736" lon="7.29118">
        <ele>818</ele>
        <time>2017-10-23T23:01:12Z</time>
      </trkpt>
      <trkpt lat="48.38746" lon="7.29138">
        <ele>813</ele>
        <time>2017-10-23T23:03:12Z</time>
      </trkpt>
      <trkpt lat="48.38773" lon="7.29155">
        <ele>813</ele>
        <time>2017-10-23T23:05:12Z</time>
      </trkpt>
      <trkpt lat="48.38806" lon="7.29168">
        <ele>814</ele>
        <time>2017-10-23T23:07:12Z</time>
      </trkpt>
      <trkpt lat="48.38842" lon="7.29191">
        <ele>813</ele>
        <time>2017-10-23T23:09:12Z</time>
      </trkpt>
      <trkpt lat="48.38822" lon="7.29245">
        <ele>798</ele>
        <time>2017-10-23T23:11:12Z</time>
      </trkpt>
      <trkpt lat="48.3882" lon="7.29266">
        <ele>792</ele>
        <time>2017-10-23T23:13:12Z</time>
      </trkpt>
      <trkpt lat="48.38823" lon="7.29276">
        <ele>790</ele>
        <time>2017-10-23T23:15:12Z</time>
      </trkpt>
      <trkpt lat="48.38823" lon="7.29289">
        <ele>786</ele>
        <time>2017-10-23T23:17:12Z</time>
      </trkpt>
      <trkpt lat="48.38824" lon="7.29302">
        <ele>783</ele>
        <time>2017-10-23T23:19:12Z</time>
      </trkpt>
      <trkpt lat="48.38818" lon="7.29313">
        <ele>780</ele>
        <time>2017-10-23T23:21:12Z</time>
      </trkpt>
      <trkpt lat="48.388" lon="7.29344">
        <ele>774</ele>
        <time>2017-10-23T23:23:12Z</time>
      </trkpt>
      <trkpt lat="48.38791" lon="7.29364">
        <ele>772</ele>
        <time>2017-10-23T23:25:12Z</time>
      </trkpt>
      <trkpt lat="48.38781" lon="7.2938">
        <ele>771</ele>
        <time>2017-10-23T23:27:12Z</time>
      </trkpt>
      <trkpt lat="48.38786" lon="7.29384">
        <ele>770</ele>
        <time>2017-10-23T23:29:12Z</time>
      </trkpt>
      <trkpt lat="48.38793" lon="7.29379">
        <ele>770</ele>
        <time>2017-10-23T23:31:12Z</time>
      </trkpt>
      <trkpt lat="48.38807" lon="7.29365">
        <ele>771</ele>
        <time>2017-10-23T23:33:12Z</time>
      </trkpt>
      <trkpt lat="48.38808" lon="7.2937">
        <ele>770</ele>
        <time>2017-10-23T23:35:12Z</time>
      </trkpt>
      <trkpt lat="48.38816" lon="7.29372">
        <ele>770</ele>
        <time>2017-10-23T23:37:12Z</time>
      </trkpt>
      <trkpt lat="48.38822" lon="7.29369">
        <ele>770</ele>
        <time>2017-10-23T23:39:12Z</time>
      </trkpt>
      <trkpt lat="48.38838" lon="7.29362">
        <ele>770</ele>
        <time>2017-10-23T23:41:12Z</time>
      </trkpt>
      <trkpt lat="48.38855" lon="7.29354">
        <ele>771</ele>
        <time>2017-10-23T23:43:12Z</time>
      </trkpt>
      <trkpt lat="48.38863" lon="7.29356">
        <ele>770</ele>
        <time>2017-10-23T23:45:12Z</time>
      </trkpt>
      <trkpt lat="48.38861" lon="7.29366">
        <ele>769</ele>
        <time>2017-10-23T23:47:12Z</time>
      </trkpt>
      <trkpt lat="48.38855" lon="7.29373">
        <ele>768</ele>
        <time>2017-10-23T23:49:12Z</time>
      </trkpt>
      <trkpt lat="48.38848" lon="7.29378">
        <ele>767</ele>
        <time>2017-10-23T23:51:12Z</time>
      </trkpt>
      <trkpt lat="48.38842" lon="7.29391">
        <ele>766</ele>
        <time>2017-10-23T23:53:12Z</time>
      </trkpt>
      <trkpt lat="48.3884" lon="7.29401">
        <ele>765</ele>
        <time>2017-10-23T23:55:12Z</time>
      </trkpt>
      <trkpt lat="48.38843" lon="7.29413">
        <ele>763</ele>
        <time>2017-10-23T23:57:12Z</time>
      </trkpt>
      <trkpt lat="48.38843" lon="7.2942">
        <ele>762</ele>
        <time>2017-10-23T23:59:12Z</time>
      </trkpt>
      <trkpt lat="48.38839" lon="7.29431">
        <ele>760</ele>
        <time>2017-10-24T00:01:12Z</time>
      </trkpt>
      <trkpt lat="48.38836" lon="7.2944">
        <ele>759</ele>
        <time>2017-10-24T00:03:12Z</time>
      </trkpt>
      <trkpt lat="48.38829" lon="7.29458">
        <ele>757</ele>
        <time>2017-10-24T00:05:12Z</time>
      </trkpt>
      <trkpt lat="48.38834" lon="7.29473">
        <ele>754</ele>
        <time>2017-10-24T00:07:12Z</time>
      </trkpt>
      <trkpt lat="48.38823" lon="7.29461">
        <ele>757</ele>
        <time>2017-10-24T00:09:12Z</time>
      </trkpt>
      <trkpt lat="48.38826" lon="7.29451">
        <ele>758</ele>
        <time>2017-10-24T00:11:12Z</time>
      </trkpt>
      <trkpt lat="48.38829" lon="7.29438">
        <ele>760</ele>
        <time>2017-10-24T00:13:12Z</time>
      </trkpt>
      <trkpt lat="48.38835" lon="7.29427">
        <ele>761</ele>
        <time>2017-10-24T00:15:12Z</time>
      </trkpt>
      <trkpt lat="48.38838" lon="7.29416">
        <ele>763</ele>
        <time>2017-10-24T00:17:12Z</time>
      </trkpt>
      <trkpt lat="48.38829" lon="7.29424">
        <ele>762</ele>
        <time>2017-10-24T00:19:12Z</time>
      </trkpt>
      <trkpt lat="48.38823" lon="7.29429">
        <ele>762</ele>
        <time>2017-10-24T00:21:12Z</time>
      </trkpt>
      <trkpt lat="48.38813" lon="7.29435">
        <ele>762</ele>
        <time>2017-10-24T00:23:12Z</time>
      </trkpt>
      <trkpt lat="48.38796" lon="7.2944">
        <ele>763</ele>
        <time>2017-10-24T00:25:12Z</time>
      </trkpt>
      <trkpt lat="48.38786" lon="7.29437">
        <ele>764</ele>
        <time>2017-10-24T00:27:12Z</time>
      </trkpt>
      <trkpt lat="48.38762" lon="7.29434">
        <ele>767</ele>
        <time>2017-10-24T00:29:12Z</time>
      </trkpt>
      <trkpt lat="48.38755" lon="7.29432">
        <ele>768</ele>
        <time>2017-10-24T00:31:12Z</time>
      </trkpt>
      <trkpt lat="48.38728" lon="7.29472">
        <ele>766</ele>
        <time>2017-10-24T00:33:12Z</time>
      </trkpt>
      <trkpt lat="48.38724" lon="7.29483">
        <ele>766</ele>
        <time>2017-10-24T00:35:12Z</time>
      </trkpt>
      <trkpt lat="48.3871" lon="7.29519">
        <ele>766</ele>
        <time>2017-10-24T00:37:12Z</time>
      </trkpt>
      <trkpt lat="48.38702" lon="7.29546">
        <ele>767</ele>
        <time>2017-10-24T00:39:12Z</time>
      </trkpt>
      <trkpt lat="48.38698" lon="7.29561">
        <ele>768</ele>
        <time>2017-10-24T00:41:12Z</time>
      </trkpt>
      <trkpt lat="48.38696" lon="7.29597">
        <ele>770</ele>
        <time>2017-10-24T00:43:12Z</time>
      </trkpt>
      <trkpt lat="48.38692" lon="7.29595">
        <ele>770</ele>
        <time>2017-10-24T00:45:12Z</time>
      </trkpt>
      <trkpt lat="48.38676" lon="7.29638">
        <ele>775</ele>
        <time>2017-10-24T00:47:12Z</time>
      </trkpt>
      <trkpt lat="48.38654" lon="7.2969">
        <ele>784</ele>
        <time>2017-10-24T00:49:12Z</time>
      </trkpt>
      <trkpt lat="48.38632" lon="7.29754">
        <ele>793</ele>
        <time>2017-10-24T00:51:12Z</time>
      </trkpt>
      <trkpt lat="48.38605" lon="7.29815">
        <ele>802</ele>
        <time>2017-10-24T00:53:12Z</time>
      </trkpt>
      <trkpt lat="48.3857" lon="7.29881">
        <ele>810</ele>
        <time>2017-10-24T00:55:12Z</time>
      </trkpt>
      <trkpt lat="48.38551" lon="7.29915">
        <ele>814</ele>
        <time>2017-10-24T00:57:12Z</time>
      </trkpt>
      <trkpt lat="48.3853" lon="7.29952">
        <ele>817</ele>
        <time>2017-10-24T00:59:12Z</time>
      </trkpt>
      <trkpt lat="48.38504" lon="7.29997">
        <ele>819</ele>
        <time>2017-10-24T01:01:12Z</time>
      </trkpt>
      <trkpt lat="48.38478" lon="7.30019">
        <ele>820</ele>
        <time>2017-10-24T01:03:12Z</time>
      </trkpt>
      <trkpt lat="48.38426" lon="7.30054">
        <ele>822</ele>
        <time>2017-10-24T01:05:12Z</time>
      </trkpt>
      <trkpt lat="48.38412" lon="7.30069">
        <ele>823</ele>
        <time>2017-10-24T01:07:12Z</time>
      </trkpt>
      <trkpt lat="48.38401" lon="7.3009">
        <ele>823</ele>
        <time>2017-10-24T01:09:12Z</time>
      </trkpt>
      <trkpt lat="48.38384" lon="7.30137">
        <ele>823</ele>
        <time>2017-10-24T01:11:12Z</time>
      </trkpt>
      <trkpt lat="48.38368" lon="7.30181">
        <ele>824</ele>
        <time>2017-10-24T01:13:12Z</time>
      </trkpt>
      <trkpt lat="48.38365" lon="7.30199">
        <ele>824</ele>
        <time>2017-10-24T01:15:12Z</time>
      </trkpt>
      <trkpt lat="48.38362" lon="7.30216">
        <ele>824</ele>
        <time>2017-10-24T01:17:12Z</time>
      </trkpt>
      <trkpt lat="48.38372" lon="7.30277">
        <ele>821</ele>
        <time>2017-10-24T01:19:12Z</time>
      </trkpt>
      <trkpt lat="48.38379" lon="7.30315">
        <ele>820</ele>
        <time>2017-10-24T01:21:12Z</time>
      </trkpt>
      <trkpt lat="48.38413" lon="7.30573">
        <ele>828</ele>
        <time>2017-10-24T01:23:12Z</time>
      </trkpt>
      <trkpt lat="48.38416" lon="7.30583">
        <ele>828</ele>
        <time>2017-10-24T01:25:12Z</time>
      </trkpt>
      <trkpt lat="48.38435" lon="7.30732">
        <ele>836</ele>
        <time>2017-10-24T01:27:12Z</time>
      </trkpt>
      <trkpt lat="48.38443" lon="7.30783">
        <ele>837</ele>
        <time>2017-10-24T01:29:12Z</time>
      </trkpt>
      <trkpt lat="48.38458" lon="7.30894">
        <ele>840</ele>
        <time>2017-10-24T01:31:12Z</time>
      </trkpt>
      <trkpt lat="48.38459" lon="7.30908">
        <ele>840</ele>
        <time>2017-10-24T01:33:12Z</time>
      </trkpt>
      <trkpt lat="48.3846" lon="7.30921">
        <ele>841</ele>
        <time>2017-10-24T01:35:12Z</time>
      </trkpt>
      <trkpt lat="48.38472" lon="7.30988">
        <ele>845</ele>
        <time>2017-10-24T01:37:12Z</time>
      </trkpt>
      <trkpt lat="48.38467" lon="7.30992">
        <ele>845</ele>
        <time>2017-10-24T01:39:12Z</time>
      </trkpt>
      <trkpt lat="48.38465" lon="7.31002">
        <ele>846</ele>
        <time>2017-10-24T01:41:12Z</time>
      </trkpt>
      <trkpt lat="48.38455" lon="7.31033">
        <ele>847</ele>
        <time>2017-10-24T01:43:12Z</time>
      </trkpt>
      <trkpt lat="48.38447" lon="7.31044">
        <ele>848</ele>
        <time>2017-10-24T01:45:12Z</time>
      </trkpt>
      <trkpt lat="48.38435" lon="7.31048">
        <ele>849</ele>
        <time>2017-10-24T01:47:12Z</time>
      </trkpt>
      <trkpt lat="48.3842" lon="7.3105">
        <ele>849</ele>
        <time>2017-10-24T01:49:12Z</time>
      </trkpt>
      <trkpt lat="48.3841" lon="7.31059">
        <ele>850</ele>
        <time>2017-10-24T01:51:12Z</time>
      </trkpt>
      <trkpt lat="48.38397" lon="7.31069">
        <ele>850</ele>
        <time>2017-10-24T01:53:12Z</time>
      </trkpt>
      <trkpt lat="48.38386" lon="7.31074">
        <ele>850</ele>
        <time>2017-10-24T01:55:12Z</time>
      </trkpt>
      <trkpt lat="48.38371" lon="7.31079">
        <ele>851</ele>
        <time>2017-10-24T01:57:12Z</time>
      </trkpt>
      <trkpt lat="48.38355" lon="7.31083">
        <ele>851</ele>
        <time>2017-10-24T01:59:12Z</time>
      </trkpt>
      <trkpt lat="48.38333" lon="7.31095">
        <ele>851</ele>
        <time>2017-10-24T02:01:12Z</time>
      </trkpt>
      <trkpt lat="48.38348" lon="7.31109">
        <ele>851</ele>
        <time>2017-10-24T02:03:12Z</time>
      </trkpt>
      <trkpt lat="48.38364" lon="7.31129">
        <ele>851</ele>
        <time>2017-10-24T02:05:12Z</time>
      </trkpt>
      <trkpt lat="48.38375" lon="7.31145">
        <ele>852</ele>
        <time>2017-10-24T02:07:12Z</time>
      </trkpt>
      <trkpt lat="48.38378" lon="7.31157">
        <ele>852</ele>
        <time>2017-10-24T02:09:12Z</time>
      </trkpt>
      <trkpt lat="48.38389" lon="7.31207">
        <ele>851</ele>
        <time>2017-10-24T02:11:12Z</time>
      </trkpt>
      <trkpt lat="48.38386" lon="7.3122">
        <ele>850</ele>
        <time>2017-10-24T02:13:12Z</time>
      </trkpt>
      <trkpt lat="48.38382" lon="7.31235">
        <ele>850</ele>
        <time>2017-10-24T02:15:12Z</time>
      </trkpt>
      <trkpt lat="48.38382" lon="7.31246">
        <ele>849</ele>
        <time>2017-10-24T02:17:12Z</time>
      </trkpt>
      <trkpt lat="48.38427" lon="7.3125">
        <ele>850</ele>
        <time>2017-10-24T02:19:12Z</time>
      </trkpt>
      <trkpt lat="48.38505" lon="7.31218">
        <ele>846</ele>
        <time>2017-10-24T02:21:12Z</time>
      </trkpt>
      <trkpt lat="48.38527" lon="7.31268">
        <ele>844</ele>
        <time>2017-10-24T02:23:12Z</time>
      </trkpt>
      <trkpt lat="48.38529" lon="7.31273">
        <ele>844</ele>
        <time>2017-10-24T02:25:12Z</time>
      </trkpt>
      <trkpt lat="48.38525" lon="7.31315">
        <ele>844</ele>
        <time>2017-10-24T02:27:12Z</time>
      </trkpt>
      <trkpt lat="48.38522" lon="7.31342">
        <ele>845</ele>
        <time>2017-10-24T02:29:12Z</time>
      </trkpt>
      <trkpt lat="48.38519" lon="7.3136">
        <ele>844</ele>
        <time>2017-10-24T02:31:12Z</time>
      </trkpt>
      <trkpt lat="48.38513" lon="7.3138">
        <ele>844</ele>
        <time>2017-10-24T02:33:12Z</time>
      </trkpt>
      <trkpt lat="48.38508" lon="7.31402">
        <ele>843</ele>
        <time>2017-10-24T02:35:12Z</time>
      </trkpt>
      <trkpt lat="48.38499" lon="7.3144">
        <ele>840</ele>
        <time>2017-10-24T02:37:12Z</time>
      </trkpt>
      <trkpt lat="48.38494" lon="7.31471">
        <ele>836</ele>
        <time>2017-10-24T02:39:12Z</time>
      </trkpt>
      <trkpt lat="48.38488" lon="7.31491">
        <ele>834</ele>
        <time>2017-10-24T02:41:12Z</time>
      </trkpt>
      <trkpt lat="48.38482" lon="7.3151">
        <ele>832</ele>
        <time>2017-10-24T02:43:12Z</time>
      </trkpt>
      <trkpt lat="48.38476" lon="7.31518">
        <ele>831</ele>
        <time>2017-10-24T02:45:12Z</time>
      </trkpt>
      <trkpt lat="48.38461" lon="7.31537">
        <ele>830</ele>
        <time>2017-10-24T02:47:12Z</time>
      </trkpt>
      <trkpt lat="48.38444" lon="7.31567">
        <ele>828</ele>
        <time>2017-10-24T02:49:12Z</time>
      </trkpt>
      <trkpt lat="48.38419" lon="7.316">
        <ele>828</ele>
        <time>2017-10-24T02:51:12Z</time>
      </trkpt>
      <trkpt lat="48.38406" lon="7.31619">
        <ele>826</ele>
        <time>2017-10-24T02:53:12Z</time>
      </trkpt>
      <trkpt lat="48.38391" lon="7.31638">
        <ele>825</ele>
        <time>2017-10-24T02:55:12Z</time>
      </trkpt>
      <trkpt lat="48.38379" lon="7.31651">
        <ele>825</ele>
        <time>2017-10-24T02:57:12Z</time>
      </trkpt>
      <trkpt lat="48.38369" lon="7.31662">
        <ele>825</ele>
        <time>2017-10-24T02:59:12Z</time>
      </trkpt>
      <trkpt lat="48.38352" lon="7.31675">
        <ele>826</ele>
        <time>2017-10-24T03:01:12Z</time>
      </trkpt>
      <trkpt lat="48.38309" lon="7.31691">
        <ele>825</ele>
        <time>2017-10-24T03:03:12Z</time>
      </trkpt>
      <trkpt lat="48.38295" lon="7.317">
        <ele>824</ele>
        <time>2017-10-24T03:05:12Z</time>
      </trkpt>
      <trkpt lat="48.38283" lon="7.31712">
        <ele>824</ele>
        <time>2017-10-24T03:07:12Z</time>
      </trkpt>
      <trkpt lat="48.38269" lon="7.31732">
        <ele>825</ele>
        <time>2017-10-24T03:09:12Z</time>
      </trkpt>
      <trkpt lat="48.38244" lon="7.31763">
        <ele>825</ele>
        <time>2017-10-24T03:11:12Z</time>
      </trkpt>
      <trkpt lat="48.38206" lon="7.31814">
        <ele>818</ele>
        <time>2017-10-24T03:13:12Z</time>
      </trkpt>
      <trkpt lat="48.38166" lon="7.3186">
        <ele>808</ele>
        <time>2017-10-24T03:15:12Z</time>
      </trkpt>
      <trkpt lat="48.38111" lon="7.32001">
        <ele>800</ele>
        <time>2017-10-24T03:17:12Z</time>
      </trkpt>
      <trkpt lat="48.38106" lon="7.32026">
        <ele>799</ele>
        <time>2017-10-24T03:19:12Z</time>
      </trkpt>
      <trkpt lat="48.38102" lon="7.3205">
        <ele>798</ele>
        <time>2017-10-24T03:21:12Z</time>
      </trkpt>
      <trkpt lat="48.38097" lon="7.321">
        <ele>797</ele>
        <time>2017-10-24T03:23:12Z</time>
      </trkpt>
      <trkpt lat="48.38088" lon="7.3217">
        <ele>793</ele>
        <time>2017-10-24T03:25:12Z</time>
      </trkpt>
      <trkpt lat="48.38084" lon="7.32218">
        <ele>790</ele>
        <time>2017-10-24T03:27:12Z</time>
      </trkpt>
      <trkpt lat="48.38083" lon="7.32269">
        <ele>788</ele>
        <time>2017-10-24T03:29:12Z</time>
      </trkpt>
      <trkpt lat="48.38082" lon="7.32295">
        <ele>786</ele>
        <time>2017-10-24T03:31:12Z</time>
      </trkpt>
      <trkpt lat="48.38076" lon="7.32365">
        <ele>780</ele>
        <time>2017-10-24T03:33:12Z</time>
      </trkpt>
      <trkpt lat="48.38073" lon="7.32472">
        <ele>777</ele>
        <time>2017-10-24T03:35:12Z</time>
      </trkpt>
      <trkpt lat="48.38071" lon="7.32593">
        <ele>771</ele>
        <time>2017-10-24T03:37:12Z</time>
      </trkpt>
      <trkpt lat="48.38071" lon="7.32628">
        <ele>768</ele>
        <time>2017-10-24T03:39:12Z</time>
      </trkpt>
      <trkpt lat="48.38068" lon="7.32645">
        <ele>766</ele>
        <time>2017-10-24T03:41:12Z</time>
      </trkpt>
      <trkpt lat="48.38065" lon="7.32654">
        <ele>765</ele>
        <time>2017-10-24T03:43:12Z</time>
      </trkpt>
      <trkpt lat="48.38058" lon="7.32665">
        <ele>763</ele>
        <time>2017-10-24T03:45:12Z</time>
      </trkpt>
      <trkpt lat="48.38038" lon="7.32689">
        <ele>760</ele>
        <time>2017-10-24T03:47:12Z</time>
      </trkpt>
      <trkpt lat="48.38036" lon="7.32666">
        <ele>760</ele>
        <time>2017-10-24T03:49:12Z</time>
      </trkpt>
      <trkpt lat="48.38033" lon="7.32628">
        <ele>760</ele>
        <time>2017-10-24T03:51:12Z</time>
      </trkpt>
      <trkpt lat="48.38031" lon="7.32604">
        <ele>760</ele>
        <time>2017-10-24T03:53:12Z</time>
      </trkpt>
      <trkpt lat="48.38022" lon="7.32583">
        <ele>758</ele>
        <time>2017-10-24T03:55:12Z</time>
      </trkpt>
      <trkpt lat="48.38012" lon="7.3256">
        <ele>754</ele>
        <time>2017-10-24T03:57:12Z</time>
      </trkpt>
      <trkpt lat="48.38001" lon="7.32546">
        <ele>750</ele>
        <time>2017-10-24T03:59:12Z</time>
      </trkpt>
      <trkpt lat="48.37977" lon="7.32541">
        <ele>750</ele>
        <time>2017-10-24T04:01:12Z</time>
      </trkpt>
      <trkpt lat="48.37921" lon="7.32465">
        <ele>735</ele>
        <time>2017-10-24T04:03:12Z</time>
      </trkpt>
      <trkpt lat="48.37889" lon="7.32427">
        <ele>729</ele>
        <time>2017-10-24T04:05:12Z</time>
      </trkpt>
      <trkpt lat="48.37864" lon="7.3238">
        <ele>720</ele>
        <time>2017-10-24T04:07:12Z</time>
      </trkpt>
      <trkpt lat="48.37854" lon="7.32371">
        <ele>718</ele>
        <time>2017-10-24T04:09:12Z</time>
      </trkpt>
      <trkpt lat="48.37835" lon="7.32354">
        <ele>713</ele>
        <time>2017-10-24T04:11:12Z</time>
      </trkpt>
      <trkpt lat="48.37807" lon="7.32331">
        <ele>708</ele>
        <time>2017-10-24T04:13:12Z</time>
      </trkpt>
      <trkpt lat="48.37721" lon="7.32232">
        <ele>687</ele>
        <time>2017-10-24T04:15:12Z</time>
      </trkpt>
      <trkpt lat="48.37669" lon="7.32192">
        <ele>681</ele>
        <time>2017-10-24T04:17:12Z</time>
      </trkpt>
      <trkpt lat="48.37641" lon="7.3216">
        <ele>678</ele>
        <time>2017-10-24T04:19:12Z</time>
      </trkpt>
      <trkpt lat="48.37623" lon="7.32133">
        <ele>675</ele>
        <time>2017-10-24T04:21:12Z</time>
      </trkpt>
      <trkpt lat="48.37603" lon="7.32102">
        <ele>672</ele>
        <time>2017-10-24T04:23:12Z</time>
      </trkpt>
      <trkpt lat="48.37558" lon="7.32045">
        <ele>666</ele>
        <time>2017-10-24T04:25:12Z</time>
      </trkpt>
      <trkpt lat="48.37523" lon="7.31985">
        <ele>657</ele>
        <time>2017-10-24T04:27:12Z</time>
      </trkpt>
      <trkpt lat="48.375" lon="7.31932">
        <ele>649</ele>
        <time>2017-10-24T04:29:12Z</time>
      </trkpt>
      <trkpt lat="48.37491" lon="7.31918">
        <ele>647</ele>
        <time>2017-10-24T04:31:12Z</time>
      </trkpt>
      <trkpt lat="48.37482" lon="7.31893">
        <ele>641</ele>
        <time>2017-10-24T04:33:12Z</time>
      </trkpt>
      <trkpt lat="48.37474" lon="7.31868">
        <ele>634</ele>
        <time>2017-10-24T04:35:12Z</time>
      </trkpt>
      <trkpt lat="48.37471" lon="7.31854">
        <ele>631</ele>
        <time>2017-10-24T04:37:12Z</time>
      </trkpt>
      <trkpt lat="48.37453" lon="7.31821">
        <ele>625</ele>
        <time>2017-10-24T04:39:12Z</time>
      </trkpt>
      <trkpt lat="48.3744" lon="7.31786">
        <ele>619</ele>
        <time>2017-10-24T04:41:12Z</time>
      </trkpt>
      <trkpt lat="48.37429" lon="7.31771">
        <ele>618</ele>
        <time>2017-10-24T04:43:12Z</time>
      </trkpt>
      <trkpt lat="48.3742" lon="7.31749">
        <ele>615</ele>
        <time>2017-10-24T04:45:12Z</time>
      </trkpt>
      <trkpt lat="48.37408" lon="7.3172">
        <ele>607</ele>
        <time>2017-10-24T04:47:12Z</time>
      </trkpt>
      <trkpt lat="48.37395" lon="7.31699">
        <ele>601</ele>
        <time>2017-10-24T04:49:12Z</time>
      </trkpt>
      <trkpt lat="48.37376" lon="7.31669">
        <ele>594</ele>
        <time>2017-10-24T04:51:12Z</time>
      </trkpt>
      <trkpt lat="48.3735" lon="7.31655">
        <ele>592</ele>
        <time>2017-10-24T04:53:12Z</time>
      </trkpt>
      <trkpt lat="48.37326" lon="7.31638">
        <ele>588</ele>
        <time>2017-10-24T04:55:12Z</time>
      </trkpt>
      <trkpt lat="48.37312" lon="7.31631">
        <ele>585</ele>
        <time>2017-10-24T04:57:12Z</time>
      </trkpt>
      <trkpt lat="48.3729" lon="7.31625">
        <ele>582</ele>
        <time>2017-10-24T04:59:12Z</time>
      </trkpt>
      <trkpt lat="48.37264" lon="7.31625">
        <ele>579</ele>
        <time>2017-10-24T05:01:12Z</time>
      </trkpt>
      <trkpt lat="48.37214" lon="7.31633">
        <ele>573</ele>
        <time>2017-10-24T05:03:12Z</time>
      </trkpt>
      <trkpt lat="48.37191" lon="7.31633">
        <ele>569</ele>
        <time>2017-10-24T05:05:12Z</time>
      </trkpt>
      <trkpt lat="48.37169" lon="7.31624">
        <ele>564</ele>
        <time>2017-10-24T05:07:12Z</time>
      </trkpt>
      <trkpt lat="48.37138" lon="7.31599">
        <ele>555</ele>
        <time>2017-10-24T05:09:12Z</time>
      </trkpt>
      <trkpt lat="48.37115" lon="7.31558">
        <ele>549</ele>
        <time>2017-10-24T05:11:12Z</time>
      </trkpt>
      <trkpt lat="48.371" lon="7.31541">
        <ele>548</ele>
        <time>2017-10-24T05:13:12Z</time>
      </trkpt>
      <trkpt lat="48.37094" lon="7.31536">
        <ele>548</ele>
        <time>2017-10-24T05:15:12Z</time>
      </trkpt>
      <trkpt lat="48.37091" lon="7.31523">
        <ele>548</ele>
        <time>2017-10-24T05:17:12Z</time>
      </trkpt>
      <trkpt lat="48.37084" lon="7.31508">
        <ele>549</ele>
        <time>2017-10-24T05:19:12Z</time>
      </trkpt>
      <trkpt lat="48.37078" lon="7.31496">
        <ele>549</ele>
        <time>2017-10-24T05:21:12Z</time>
      </trkpt>
      <trkpt lat="48.37071" lon="7.31482">
        <ele>549</ele>
        <time>2017-10-24T05:23:12Z</time>
      </trkpt>
      <trkpt lat="48.37057" lon="7.31456">
        <ele>549</ele>
        <time>2017-10-24T05:25:12Z</time>
      </trkpt>
      <trkpt lat="48.3705" lon="7.31441">
        <ele>549</ele>
        <time>2017-10-24T05:27:12Z</time>
      </trkpt>
      <trkpt lat="48.37036" lon="7.31422">
        <ele>551</ele>
        <time>2017-10-24T05:29:12Z</time>
      </trkpt>
      <trkpt lat="48.37015" lon="7.3142">
        <ele>552</ele>
        <time>2017-10-24T05:31:12Z</time>
      </trkpt>
      <trkpt lat="48.36997" lon="7.31419">
        <ele>552</ele>
        <time>2017-10-24T05:33:12Z</time>
      </trkpt>
      <trkpt lat="48.36961" lon="7.31429">
        <ele>549</ele>
        <time>2017-10-24T05:35:12Z</time>
      </trkpt>
      <trkpt lat="48.36944" lon="7.31423">
        <ele>550</ele>
        <time>2017-10-24T05:37:12Z</time>
      </trkpt>
      <trkpt lat="48.36927" lon="7.3142">
        <ele>550</ele>
        <time>2017-10-24T05:39:12Z</time>
      </trkpt>
      <trkpt lat="48.36911" lon="7.31414">
        <ele>551</ele>
        <time>2017-10-24T05:41:12Z</time>
      </trkpt>
      <trkpt lat="48.36894" lon="7.31417">
        <ele>549</ele>
        <time>2017-10-24T05:43:12Z</time>
      </trkpt>
      <trkpt lat="48.36882" lon="7.31417">
        <ele>548</ele>
        <time>2017-10-24T05:45:12Z</time>
      </trkpt>
      <trkpt lat="48.36871" lon="7.31415">
        <ele>547</ele>
        <time>2017-10-24T05:47:12Z</time>
      </trkpt>
      <trkpt lat="48.3686" lon="7.31409">
        <ele>547</ele>
        <time>2017-10-24T05:49:12Z</time>
      </trkpt>
      <trkpt lat="48.3685" lon="7.314">
        <ele>547</ele>
        <time>2017-10-24T05:51:12Z</time>
      </trkpt>
      <trkpt lat="48.36834" lon="7.31392">
        <ele>547</ele>
        <time>2017-10-24T05:53:12Z</time>
      </trkpt>
      <trkpt lat="48.36817" lon="7.31396">
        <ele>543</ele>
        <time>2017-10-24T05:55:12Z</time>
      </trkpt>
      <trkpt lat="48.36799" lon="7.31396">
        <ele>540</ele>
        <time>2017-10-24T05:57:12Z</time>
      </trkpt>
      <trkpt lat="48.36782" lon="7.31385">
        <ele>539</ele>
        <time>2017-10-24T05:59:12Z</time>
      </trkpt>
      <trkpt lat="48.36773" lon="7.31374">
        <ele>540</ele>
        <time>2017-10-24T06:01:12Z</time>
      </trkpt>
      <trkpt lat="48.36756" lon="7.31356">
        <ele>540</ele>
        <time>2017-10-24T06:03:12Z</time>
      </trkpt>
      <trkpt lat="48.36715" lon="7.31326">
        <ele>534</ele>
        <time>2017-10-24T06:05:12Z</time>
      </trkpt>
      <trkpt lat="48.36682" lon="7.31298">
        <ele>529</ele>
        <time>2017-10-24T06:07:12Z</time>
      </trkpt>
      <trkpt lat="48.36665" lon="7.31264">
        <ele>528</ele>
        <time>2017-10-24T06:09:12Z</time>
      </trkpt>
      <trkpt lat="48.3665" lon="7.31232">
        <ele>525</ele>
        <time>2017-10-24T06:11:12Z</time>
      </trkpt>
      <trkpt lat="48.36632" lon="7.312">
        <ele>521</ele>
        <time>2017-10-24T06:13:12Z</time>
      </trkpt>
      <trkpt lat="48.36612" lon="7.3117">
        <ele>517</ele>
        <time>2017-10-24T06:15:12Z</time>
      </trkpt>
      <trkpt lat="48.3659" lon="7.31132">
        <ele>510</ele>
        <time>2017-10-24T06:17:12Z</time>
      </trkpt>
      <trkpt lat="48.36566" lon="7.31096">
        <ele>503</ele>
        <time>2017-10-24T06:19:12Z</time>
      </trkpt>
      <trkpt lat="48.36505" lon="7.30998">
        <ele>485</ele>
        <time>2017-10-24T06:21:12Z</time>
      </trkpt>
      <trkpt lat="48.365" lon="7.30988">
        <ele>483</ele>
        <time>2017-10-24T06:23:12Z</time>
      </trkpt>
      <trkpt lat="48.36456" lon="7.30962">
        <ele>474</ele>
        <time>2017-10-24T06:25:12Z</time>
      </trkpt>
      <trkpt lat="48.36441" lon="7.3096">
        <ele>471</ele>
        <time>2017-10-24T06:27:12Z</time>
      </trkpt>
      <trkpt lat="48.36396" lon="7.30954">
        <ele>463</ele>
        <time>2017-10-24T06:29:12Z</time>
      </trkpt>
      <trkpt lat="48.36366" lon="7.30949">
        <ele>459</ele>
        <time>2017-10-24T06:31:12Z</time>
      </trkpt>
      <trkpt lat="48.36335" lon="7.30942">
        <ele>455</ele>
        <time>2017-10-24T06:33:12Z</time>
      </trkpt>
      <trkpt lat="48.36299" lon="7.30937">
        <ele>452</ele>
        <time>2017-10-24T06:35:12Z</time>
      </trkpt>
      <trkpt lat="48.3628" lon="7.30937">
        <ele>451</ele>
        <time>2017-10-24T06:37:12Z</time>
      </trkpt>
      <trkpt lat="48.36265" lon="7.30934">
        <ele>450</ele>
        <time>2017-10-24T06:39:12Z</time>
      </trkpt>
      <trkpt lat="48.36249" lon="7.30937">
        <ele>448</ele>
        <time>2017-10-24T06:41:12Z</time>
      </trkpt>
      <trkpt lat="48.36234" lon="7.30941">
        <ele>447</ele>
        <time>2017-10-24T06:43:12Z</time>
      </trkpt>
      <trkpt lat="48.36212" lon="7.30953">
        <ele>445</ele>
        <time>2017-10-24T06:45:12Z</time>
      </trkpt>
      <trkpt lat="48.36183" lon="7.30973">
        <ele>442</ele>
        <time>2017-10-24T06:47:12Z</time>
      </trkpt>
      <trkpt lat="48.3619" lon="7.30964">
        <ele>443</ele>
        <time>2017-10-24T06:49:12Z</time>
      </trkpt>
      <trkpt lat="48.36194" lon="7.30942">
        <ele>444</ele>
        <time>2017-10-24T06:51:12Z</time>
      </trkpt>
      <trkpt lat="48.36199" lon="7.30907">
        <ele>447</ele>
        <time>2017-10-24T06:53:12Z</time>
      </trkpt>
      <trkpt lat="48.36205" lon="7.30888">
        <ele>448</ele>
        <time>2017-10-24T06:55:12Z</time>
      </trkpt>
      <trkpt lat="48.36215" lon="7.30864">
        <ele>450</ele>
        <time>2017-10-24T06:57:12Z</time>
      </trkpt>
      <trkpt lat="48.36227" lon="7.30834">
        <ele>453</ele>
        <time>2017-10-24T06:59:12Z</time>
      </trkpt>
      <trkpt lat="48.36238" lon="7.30807">
        <ele>455</ele>
        <time>2017-10-24T07:01:12Z</time>
      </trkpt>
      <trkpt lat="48.3626" lon="7.3076">
        <ele>456</ele>
        <time>2017-10-24T07:03:12Z</time>
      </trkpt>
      <trkpt lat="48.36271" lon="7.30744">
        <ele>455</ele>
        <time>2017-10-24T07:05:12Z</time>
      </trkpt>
      <trkpt lat="48.36309" lon="7.30661">
        <ele>439</ele>
        <time>2017-10-24T07:07:12Z</time>
      </trkpt>
      <trkpt lat="48.36345" lon="7.30587">
        <ele>422</ele>
        <time>2017-10-24T07:09:12Z</time>
      </trkpt>
      <trkpt lat="48.36376" lon="7.30515">
        <ele>414</ele>
        <time>2017-10-24T07:11:12Z</time>
      </trkpt>
      <trkpt lat="48.36393" lon="7.30486">
        <ele>411</ele>
        <time>2017-10-24T07:13:12Z</time>
      </trkpt>
      <trkpt lat="48.36397" lon="7.30475">
        <ele>409</ele>
        <time>2017-10-24T07:15:12Z</time>
      </trkpt>
      <trkpt lat="48.36406" lon="7.30439">
        <ele>404</ele>
        <time>2017-10-24T07:17:12Z</time>
      </trkpt>
      <trkpt lat="48.36409" lon="7.30413">
        <ele>400</ele>
        <time>2017-10-24T07:19:12Z</time>
      </trkpt>
      <trkpt lat="48.36409" lon="7.30398">
        <ele>399</ele>
        <time>2017-10-24T07:21:12Z</time>
      </trkpt>
      <trkpt lat="48.36412" lon="7.30379">
        <ele>396</ele>
        <time>2017-10-24T07:23:12Z</time>
      </trkpt>
      <trkpt lat="48.36421" lon="7.30336">
        <ele>390</ele>
        <time>2017-10-24T07:25:12Z</time>
      </trkpt>
      <trkpt lat="48.36425" lon="7.30312">
        <ele>387</ele>
        <time>2017-10-24T07:27:12Z</time>
      </trkpt>
      <trkpt lat="48.36423" lon="7.30293">
        <ele>384</ele>
        <time>2017-10-24T07:29:12Z</time>
      </trkpt>
      <trkpt lat="48.36422" lon="7.30283">
        <ele>383</ele>
        <time>2017-10-24T07:31:12Z</time>
      </trkpt>
      <trkpt lat="48.36411" lon="7.30235">
        <ele>379</ele>
        <time>2017-10-24T07:33:12Z</time>
      </trkpt>
      <trkpt lat="48.36404" lon="7.3018">
        <ele>379</ele>
        <time>2017-10-24T07:35:12Z</time>
      </trkpt>
      <trkpt lat="48.36399" lon="7.30168">
        <ele>379</ele>
        <time>2017-10-24T07:37:12Z</time>
      </trkpt>
      <trkpt lat="48.36405" lon="7.30161">
        <ele>378</ele>
        <time>2017-10-24T07:39:12Z</time>
      </trkpt>
      <trkpt lat="48.36405" lon="7.30151">
        <ele>378</ele>
        <time>2017-10-24T07:41:12Z</time>
      </trkpt>
      <trkpt lat="48.36403" lon="7.30134">
        <ele>379</ele>
        <time>2017-10-24T07:43:12Z</time>
      </trkpt>
      <trkpt lat="48.36397" lon="7.30101">
        <ele>378</ele>
        <time>2017-10-24T07:45:12Z</time>
      </trkpt>
      <trkpt lat="48.36389" lon="7.30052">
        <ele>378</ele>
        <time>2017-10-24T07:47:12Z</time>
      </trkpt>
      <trkpt lat="48.36381" lon="7.30028">
        <ele>377</ele>
        <time>2017-10-24T07:49:12Z</time>
      </trkpt>
      <trkpt lat="48.36374" lon="7.29999">
        <ele>375</ele>
        <time>2017-10-24T07:51:12Z</time>
      </trkpt>
      <trkpt lat="48.36361" lon="7.29938">
        <ele>374</ele>
        <time>2017-10-24T07:53:12Z</time>
      </trkpt>
      <trkpt lat="48.36365" lon="7.29892">
        <ele>378</ele>
        <time>2017-10-24T07:55:12Z</time>
      </trkpt>
      <trkpt lat="48.36365" lon="7.29866">
        <ele>380</ele>
        <time>2017-10-24T07:57:12Z</time>
      </trkpt>
      <trkpt lat="48.36364" lon="7.29826">
        <ele>382</ele>
        <time>2017-10-24T07:59:12Z</time>
      </trkpt>
      <trkpt lat="48.36362" lon="7.298">
        <ele>383</ele>
        <time>2017-10-24T08:01:12Z</time>
      </trkpt>
      <trkpt lat="48.3636" lon="7.29772">
        <ele>385</ele>
        <time>2017-10-24T08:03:12Z</time>
      </trkpt>
      <trkpt lat="48.36359" lon="7.29749">
        <ele>386</ele>
        <time>2017-10-24T08:05:12Z</time>
      </trkpt>
      <trkpt lat="48.36361" lon="7.29722">
        <ele>386</ele>
        <time>2017-10-24T08:07:12Z</time>
      </trkpt>
      <trkpt lat="48.36359" lon="7.29695">
        <ele>386</ele>
        <time>2017-10-24T08:09:12Z</time>
      </trkpt>
      <trkpt lat="48.3636" lon="7.29686">
        <ele>386</ele>
        <time>2017-10-24T08:11:12Z</time>
      </trkpt>
      <trkpt lat="48.36365" lon="7.29674">
        <ele>386</ele>
        <time>2017-10-24T08:13:12Z</time>
      </trkpt>
      <trkpt lat="48.36372" lon="7.29654">
        <ele>384</ele>
        <time>2017-10-24T08:15:12Z</time>
      </trkpt>
      <trkpt lat="48.36385" lon="7.29625">
        <ele>380</ele>
        <time>2017-10-24T08:17:12Z</time>
      </trkpt>
      <trkpt lat="48.36392" lon="7.29598">
        <ele>375</ele>
        <time>2017-10-24T08:19:12Z</time>
      </trkpt>
      <trkpt lat="48.36401" lon="7.29573">
        <ele>369</ele>
        <time>2017-10-24T08:21:12Z</time>
      </trkpt>
      <trkpt lat="48.36409" lon="7.29557">
        <ele>365</ele>
        <time>2017-10-24T08:23:12Z</time>
      </trkpt>
      <trkpt lat="48.36418" lon="7.29545">
        <ele>362</ele>
        <time>2017-10-24T08:25:12Z</time>
      </trkpt>
      <trkpt lat="48.36427" lon="7.29537">
        <ele>362</ele>
        <time>2017-10-24T08:27:12Z</time>
      </trkpt>
      <trkpt lat="48.36449" lon="7.29515">
        <ele>359</ele>
        <time>2017-10-24T08:29:12Z</time>
      </trkpt>
      <trkpt lat="48.36461" lon="7.29513">
        <ele>359</ele>
        <time>2017-10-24T08:31:12Z</time>
      </trkpt>
      <trkpt lat="48.36469" lon="7.29505">
        <ele>358</ele>
        <time>2017-10-24T08:33:12Z</time>
      </trkpt>
      <trkpt lat="48.36477" lon="7.2948">
        <ele>357</ele>
        <time>2017-10-24T08:35:12Z</time>
      </trkpt>
      <trkpt lat="48.36485" lon="7.29459">
        <ele>356</ele>
        <time>2017-10-24T08:37:12Z</time>
      </trkpt>
      <trkpt lat="48.36489" lon="7.29436">
        <ele>355</ele>
        <time>2017-10-24T08:39:12Z</time>
      </trkpt>
      <trkpt lat="48.36493" lon="7.29405">
        <ele>356</ele>
        <time>2017-10-24T08:41:12Z</time>
      </trkpt>
      <trkpt lat="48.36495" lon="7.2939">
        <ele>358</ele>
        <time>2017-10-24T08:43:12Z</time>
      </trkpt>
      <trkpt lat="48.36495" lon="7.29384">
        <ele>358</ele>
        <time>2017-10-24T08:45:12Z</time>
      </trkpt>
      <trkpt lat="48.36511" lon="7.29377">
        <ele>361</ele>
        <time>2017-10-24T08:47:12Z</time>
      </trkpt>
      <trkpt lat="48.36526" lon="7.29372">
        <ele>362</ele>
        <time>2017-10-24T08:49:12Z</time>
      </trkpt>
      <trkpt lat="48.36515" lon="7.29363">
        <ele>363</ele>
        <time>2017-10-24T08:51:12Z</time>
      </trkpt>
      <trkpt lat="48.36505" lon="7.29354">
        <ele>363</ele>
        <time>2017-10-24T08:53:12Z</time>
      </trkpt>
      <trkpt lat="48.36498" lon="7.29339">
        <ele>364</ele>
        <time>2017-10-24T08:55:12Z</time>
      </trkpt>
      <trkpt lat="48.36494" lon="7.2932">
        <ele>364</ele>
        <time>2017-10-24T08:57:12Z</time>
      </trkpt>
      <trkpt lat="48.36493" lon="7.29301">
        <ele>365</ele>
        <time>2017-10-24T08:59:12Z</time>
      </trkpt>
      <trkpt lat="48.36496" lon="7.29281">
        <ele>366</ele>
        <time>2017-10-24T09:01:12Z</time>
      </trkpt>
      <trkpt lat="48.36498" lon="7.2926">
        <ele>366</ele>
        <time>2017-10-24T09:03:12Z</time>
      </trkpt>
      <trkpt lat="48.36504" lon="7.2926">
        <ele>367</ele>
        <time>2017-10-24T09:05:12Z</time>
      </trkpt>
      <trkpt lat="48.3652" lon="7.29259">
        <ele>369</ele>
        <time>2017-10-24T09:07:12Z</time>
      </trkpt>
      <trkpt lat="48.36531" lon="7.2926">
        <ele>370</ele>
        <time>2017-10-24T09:09:12Z</time>
      </trkpt>
      <trkpt lat="48.36538" lon="7.29265">
        <ele>370</ele>
        <time>2017-10-24T09:11:12Z</time>
      </trkpt>
      <trkpt lat="48.36549" lon="7.2926">
        <ele>371</ele>
        <time>2017-10-24T09:13:12Z</time>
      </trkpt>
      <trkpt lat="48.36567" lon="7.29254">
        <ele>373</ele>
        <time>2017-10-24T09:15:12Z</time>
      </trkpt>
      <trkpt lat="48.36571" lon="7.29248">
        <ele>374</ele>
        <time>2017-10-24T09:17:12Z</time>
      </trkpt>
      <trkpt lat="48.36575" lon="7.29242">
        <ele>375</ele>
        <time>2017-10-24T09:19:12Z</time>
      </trkpt>
      <trkpt lat="48.36576" lon="7.29231">
        <ele>375</ele>
        <time>2017-10-24T09:21:12Z</time>
      </trkpt>
      <trkpt lat="48.3658" lon="7.29223">
        <ele>376</ele>
        <time>2017-10-24T09:23:12Z</time>
      </trkpt>
      <trkpt lat="48.36585" lon="7.2921">
        <ele>377</ele>
        <time>2017-10-24T09:25:12Z</time>
      </trkpt>
      <trkpt lat="48.36592" lon="7.29199">
        <ele>379</ele>
        <time>2017-10-24T09:27:12Z</time>
      </trkpt>
      <trkpt lat="48.36596" lon="7.29194">
        <ele>379</ele>
        <time>2017-10-24T09:29:12Z</time>
      </trkpt>
      <trkpt lat="48.36611" lon="7.29184">
        <ele>382</ele>
        <time>2017-10-24T09:31:12Z</time>
      </trkpt>
      <trkpt lat="48.36616" lon="7.29176">
        <ele>383</ele>
        <time>2017-10-24T09:33:12Z</time>
      </trkpt>
      <trkpt lat="48.36613" lon="7.29163">
        <ele>384</ele>
        <time>2017-10-24T09:35:12Z</time>
      </trkpt>
      <trkpt lat="48.36606" lon="7.29142">
        <ele>385</ele>
        <time>2017-10-24T09:37:12Z</time>
      </trkpt>
      <trkpt lat="48.36606" lon="7.2912">
        <ele>387</ele>
        <time>2017-10-24T09:39:12Z</time>
      </trkpt>
      <trkpt lat="48.36606" lon="7.29088">
        <ele>391</ele>
        <time>2017-10-24T09:41:12Z</time>
      </trkpt>
      <trkpt lat="48.36606" lon="7.29061">
        <ele>393</ele>
        <time>2017-10-24T09:43:12Z</time>
      </trkpt>
      <trkpt lat="48.36607" lon="7.29032">
        <ele>396</ele>
        <time>2017-10-24T09:45:12Z</time>
      </trkpt>
      <trkpt lat="48.36609" lon="7.29014">
        <ele>398</ele>
        <time>2017-10-24T09:47:12Z</time>
      </trkpt>
      <trkpt lat="48.36625" lon="7.28971">
        <ele>403</ele>
        <time>2017-10-24T09:49:12Z</time>
      </trkpt>
      <trkpt lat="48.36635" lon="7.28945">
        <ele>406</ele>
        <time>2017-10-24T09:51:12Z</time>
      </trkpt>
      <trkpt lat="48.36647" lon="7.28908">
        <ele>410</ele>
        <time>2017-10-24T09:53:12Z</time>
      </trkpt>
      <trkpt lat="48.36659" lon="7.28871">
        <ele>414</ele>
        <time>2017-10-24T09:55:12Z</time>
      </trkpt>
      <trkpt lat="48.36671" lon="7.28842">
        <ele>419</ele>
        <time>2017-10-24T09:57:12Z</time>
      </trkpt>
      <trkpt lat="48.36687" lon="7.28804">
        <ele>423</ele>
        <time>2017-10-24T09:59:12Z</time>
      </trkpt>
      <trkpt lat="48.36696" lon="7.28781">
        <ele>425</ele>
        <time>2017-10-24T10:01:12Z</time>
      </trkpt>
      <trkpt lat="48.3671" lon="7.28754">
        <ele>427</ele>
        <time>2017-10-24T10:03:12Z</time>
      </trkpt>
      <trkpt lat="48.36725" lon="7.2872">
        <ele>427</ele>
        <time>2017-10-24T10:05:12Z</time>
      </trkpt>
      <trkpt lat="48.36737" lon="7.28703">
        <ele>428</ele>
        <time>2017-10-24T10:07:12Z</time>
      </trkpt>
      <trkpt lat="48.36755" lon="7.28681">
        <ele>428</ele>
        <time>2017-10-24T10:09:12Z</time>
      </trkpt>
      <trkpt lat="48.36766" lon="7.28675">
        <ele>429</ele>
        <time>2017-10-24T10:11:12Z</time>
      </trkpt>
      <trkpt lat="48.36775" lon="7.28671">
        <ele>430</ele>
        <time>2017-10-24T10:13:12Z</time>
      </trkpt>
      <trkpt lat="48.36789" lon="7.2867">
        <ele>431</ele>
        <time>2017-10-24T10:15:12Z</time>
      </trkpt>
      <trkpt lat="48.36798" lon="7.28676">
        <ele>433</ele>
        <time>2017-10-24T10:17:12Z</time>
      </trkpt>
      <trkpt lat="48.36811" lon="7.28688">
        <ele>436</ele>
        <time>2017-10-24T10:19:12Z</time>
      </trkpt>
      <trkpt lat="48.36825" lon="7.28702">
        <ele>439</ele>
        <time>2017-10-24T10:21:12Z</time>
      </trkpt>
      <trkpt lat="48.36838" lon="7.28722">
        <ele>443</ele>
        <time>2017-10-24T10:23:12Z</time>
      </trkpt>
      <trkpt lat="48.36849" lon="7.28743">
        <ele>447</ele>
        <time>2017-10-24T10:25:12Z</time>
      </trkpt>
      <trkpt lat="48.36867" lon="7.28767">
        <ele>451</ele>
        <time>2017-10-24T10:27:12Z</time>
      </trkpt>
      <trkpt lat="48.36883" lon="7.2879">
        <ele>454</ele>
        <time>2017-10-24T10:29:12Z</time>
      </trkpt>
      <trkpt lat="48.36901" lon="7.2882">
        <ele>457</ele>
        <time>2017-10-24T10:31:12Z</time>
      </trkpt>
      <trkpt lat="48.36915" lon="7.28846">
        <ele>458</ele>
        <time>2017-10-24T10:33:12Z</time>
      </trkpt>
      <trkpt lat="48.36925" lon="7.28887">
        <ele>458</ele>
        <time>2017-10-24T10:35:12Z</time>
      </trkpt>
    </trkseg>
  </trk>
</gpx>